Balguntay, China
Current Conditions -  °F | °C
As of 4:00 AM on Monday 24 Nov 2014 (Local Time) from ZWWW Reporting Station
Smoke Smoke  
Wind Chill: 19°   Ceiling: Unl
Heat Index: 25°   Visibility: 1.5mi
Dew Point: 21°   Wind: 4mph
Humidity: 86%   Direction: 60°ENE
Pressure: 30.06"   Gusts: NA
Location:  42.67°N, 86.33°E
Report Text: ZWWW 232000Z 06002MPS 2500 FU NSC M04/M06 Q1018 NOSIG
Loading
Personal Weather Stations






























Interactive Weather Map New forecast layout! Learn more

10-Day Weather Forecast

Advertisements
Track Severe Weather on mobile